sensor_id;sensor_type;location;lat;lon;timestamp;pressure;altitude;pressure_sealevel;temperature;humidity
75640;BME280;64233;51.486;6.332;2023-08-07T00:01:10;100949.00;;;12.28;100.00
75640;BME280;64233;51.486;6.332;2023-08-07T00:03:35;100955.50;;;12.32;100.00
75640;BME280;64233;51.486;6.332;2023-08-07T00:06:01;100953.06;;;12.31;100.00
75640;BME280;64233;51.486;6.332;2023-08-07T00:08:26;100956.28;;;12.28;100.00
75640;BME280;64233;51.486;6.332;2023-08-07T00:10:51;100953.59;;;12.28;100.00
75640;BME280;64233;51.486;6.332;2023-08-07T00:13:16;100949.34;;;12.37;100.00
75640;BME280;64233;51.486;6.332;2023-08-07T00:15:42;100951.44;;;12.30;100.00
75640;BME280;64233;51.486;6.332;2023-08-07T00:18:07;100951.75;;;12.33;100.00
75640;BME280;64233;51.486;6.332;2023-08-07T00:20:32;100945.00;;;12.31;100.00
75640;BME280;64233;51.486;6.332;2023-08-07T00:22:57;100939.88;;;12.29;100.00
75640;BME280;64233;51.486;6.332;2023-08-07T00:25:23;100952.81;;;12.32;100.00
75640;BME280;64233;51.486;6.332;2023-08-07T00:27:48;100941.75;;;12.29;100.00
75640;BME280;64233;51.486;6.332;2023-08-07T00:30:14;100947.09;;;12.23;100.00
75640;BME280;64233;51.486;6.332;2023-08-07T00:32:39;100953.28;;;12.24;100.00
75640;BME280;64233;51.486;6.332;2023-08-07T00:35:05;100957.59;;;12.25;100.00
75640;BME280;64233;51.486;6.332;2023-08-07T00:37:31;100955.97;;;12.24;100.00
75640;BME280;64233;51.486;6.332;2023-08-07T00:39:56;100959.53;;;12.30;100.00
75640;BME280;64233;51.486;6.332;2023-08-07T00:42:21;100960.84;;;12.27;100.00
75640;BME280;64233;51.486;6.332;2023-08-07T00:44:47;100946.78;;;12.20;100.00
75640;BME280;64233;51.486;6.332;2023-08-07T00:47:12;100945.22;;;12.24;100.00
75640;BME280;64233;51.486;6.332;2023-08-07T00:49:37;100963.28;;;12.29;100.00
75640;BME280;64233;51.486;6.332;2023-08-07T00:52:03;100955.44;;;12.22;100.00
75640;BME280;64233;51.486;6.332;2023-08-07T00:54:28;100957.38;;;12.32;100.00
75640;BME280;64233;51.486;6.332;2023-08-07T00:56:54;100959.81;;;12.33;100.00
75640;BME280;64233;51.486;6.332;2023-08-07T00:59:20;100957.41;;;12.37;100.00
75640;BME280;64233;51.486;6.332;2023-08-07T01:01:46;100961.69;;;12.33;100.00
75640;BME280;64233;51.486;6.332;2023-08-07T01:04:11;100953.34;;;12.34;100.00
75640;BME280;64233;51.486;6.332;2023-08-07T01:06:37;100956.56;;;12.31;100.00
75640;BME280;64233;51.486;6.332;2023-08-07T01:09:03;100958.22;;;12.37;100.00
75640;BME280;64233;51.486;6.332;2023-08-07T01:11:47;100964.38;;;12.28;100.00
75640;BME280;64233;51.486;6.332;2023-08-07T01:14:24;100957.59;;;12.25;100.00
75640;BME280;64233;51.486;6.332;2023-08-07T01:17:06;100960.03;;;12.27;100.00
75640;BME280;64233;51.486;6.332;2023-08-07T01:19:34;100967.78;;;12.18;100.00
75640;BME280;64233;51.486;6.332;2023-08-07T01:22:09;100967.53;;;12.19;100.00
75640;BME280;64233;51.486;6.332;2023-08-07T01:24:36;100963.47;;;12.17;100.00
75640;BME280;64233;51.486;6.332;2023-08-07T01:27:30;100976.91;;;12.17;100.00
75640;BME280;64233;51.486;6.332;2023-08-07T01:35:17;100981.13;;;12.08;100.00
75640;BME280;64233;51.486;6.332;2023-08-07T01:37:46;100980.88;;;12.09;100.00
75640;BME280;64233;51.486;6.332;2023-08-07T01:40:13;100983.34;;;12.11;100.00
75640;BME280;64233;51.486;6.332;2023-08-07T01:42:39;100985.97;;;12.05;100.00
75640;BME280;64233;51.486;6.332;2023-08-07T01:45:05;100981.09;;;12.02;100.00
75640;BME280;64233;51.486;6.332;2023-08-07T01:47:30;100982.16;;;12.01;100.00
75640;BME280;64233;51.486;6.332;2023-08-07T01:49:56;100978.34;;;11.97;100.00
75640;BME280;64233;51.486;6.332;2023-08-07T01:52:21;100984.59;;;12.03;100.00
75640;BME280;64233;51.486;6.332;2023-08-07T01:54:47;100981.63;;;11.99;100.00
75640;BME280;64233;51.486;6.332;2023-08-07T01:57:12;100982.69;;;11.98;100.00
75640;BME280;64233;51.486;6.332;2023-08-07T01:59:38;100979.41;;;11.96;100.00
75640;BME280;64233;51.486;6.332;2023-08-07T02:02:03;100976.19;;;11.94;100.00
75640;BME280;64233;51.486;6.332;2023-08-07T02:04:29;100976.72;;;11.96;100.00
75640;BME280;64233;51.486;6.332;2023-08-07T02:06:54;100976.22;;;11.99;100.00
75640;BME280;64233;51.486;6.332;2023-08-07T02:09:19;100986.16;;;11.99;100.00
75640;BME280;64233;51.486;6.332;2023-08-07T02:11:45;100987.00;;;11.99;100.00
75640;BME280;64233;51.486;6.332;2023-08-07T02:14:11;100982.97;;;12.02;100.00
75640;BME280;64233;51.486;6.332;2023-08-07T02:16:36;100999.09;;;12.02;100.00
75640;BME280;64233;51.486;6.332;2023-08-07T02:19:01;101001.84;;;12.07;100.00
75640;BME280;64233;51.486;6.332;2023-08-07T02:21:26;101002.72;;;12.13;100.00
75640;BME280;64233;51.486;6.332;2023-08-07T02:23:52;101003.22;;;12.10;100.00
75640;BME280;64233;51.486;6.332;2023-08-07T02:26:17;101010.53;;;12.14;100.00
75640;BME280;64233;51.486;6.332;2023-08-07T02:28:42;101010.78;;;12.13;100.00
75640;BME280;64233;51.486;6.332;2023-08-07T02:31:07;101014.00;;;12.15;100.00
75640;BME280;64233;51.486;6.332;2023-08-07T02:33:33;101002.16;;;12.11;100.00
75640;BME280;64233;51.486;6.332;2023-08-07T02:35:58;101010.25;;;12.16;100.00
75640;BME280;64233;51.486;6.332;2023-08-07T02:38:25;101011.91;;;12.17;100.00
75640;BME280;64233;51.486;6.332;2023-08-07T02:40:50;101013.78;;;12.16;100.00
75640;BME280;64233;51.486;6.332;2023-08-07T02:43:15;101012.69;;;12.17;100.00
75640;BME280;64233;51.486;6.332;2023-08-07T02:45:40;101012.69;;;12.17;100.00
75640;BME280;64233;51.486;6.332;2023-08-07T02:48:06;101020.50;;;12.19;100.00
75640;BME280;64233;51.486;6.332;2023-08-07T02:50:31;101013.78;;;12.16;100.00
75640;BME280;64233;51.486;6.332;2023-08-07T02:52:58;101007.88;;;12.19;100.00
75640;BME280;64233;51.486;6.332;2023-08-07T02:55:23;101011.38;;;12.20;100.00
75640;BME280;64233;51.486;6.332;2023-08-07T02:57:49;101008.69;;;12.20;100.00
75640;BME280;64233;51.486;6.332;2023-08-07T03:00:14;101014.88;;;12.20;100.00
75640;BME280;64233;51.486;6.332;2023-08-07T03:02:39;101004.88;;;12.16;100.00
75640;BME280;64233;51.486;6.332;2023-08-07T03:05:05;101012.69;;;12.17;100.00
75640;BME280;64233;51.486;6.332;2023-08-07T03:07:30;101011.09;;;12.16;100.00
75640;BME280;64233;51.486;6.332;2023-08-07T03:09:55;101009.22;;;12.17;100.00
75640;BME280;64233;51.486;6.332;2023-08-07T03:12:21;101017.78;;;12.14;100.00
75640;BME280;64233;51.486;6.332;2023-08-07T03:14:46;101011.63;;;12.18;100.00
75640;BME280;64233;51.486;6.332;2023-08-07T03:17:11;101012.09;;;12.10;100.00
75640;BME280;64233;51.486;6.332;2023-08-07T03:19:37;101010.25;;;12.16;100.00
75640;BME280;64233;51.486;6.332;2023-08-07T03:22:02;101011.03;;;12.11;100.00
75640;BME280;64233;51.486;6.332;2023-08-07T03:24:27;101014.28;;;12.13;100.00
75640;BME280;64233;51.486;6.332;2023-08-07T03:26:53;101012.63;;;12.07;100.00
75640;BME280;64233;51.486;6.332;2023-08-07T03:29:18;101006.78;;;12.15;100.00
75640;BME280;64233;51.486;6.332;2023-08-07T03:31:43;101003.50;;;12.13;100.00
75640;BME280;64233;51.486;6.332;2023-08-07T03:34:09;101001.84;;;12.07;100.00
75640;BME280;64233;51.486;6.332;2023-08-07T03:36:34;101001.06;;;12.07;100.00
75640;BME280;64233;51.486;6.332;2023-08-07T03:38:59;101003.47;;;12.08;100.00
75640;BME280;64233;51.486;6.332;2023-08-07T03:41:24;101006.69;;;12.05;100.00
75640;BME280;64233;51.486;6.332;2023-08-07T03:43:50;101002.66;;;12.08;100.00
75640;BME280;64233;51.486;6.332;2023-08-07T03:46:15;101002.91;;;12.06;100.00
75640;BME280;64233;51.486;6.332;2023-08-07T03:48:40;101011.28;;;12.10;100.00
75640;BME280;64233;51.486;6.332;2023-08-07T03:51:07;101007.28;;;12.12;100.00
75640;BME280;64233;51.486;6.332;2023-08-07T03:53:36;101006.25;;;12.18;100.00
75640;BME280;64233;51.486;6.332;2023-08-07T03:56:02;101003.31;;;12.20;100.00
75640;BME280;64233;51.486;6.332;2023-08-07T03:58:27;100997.91;;;12.20;100.00
75640;BME280;64233;51.486;6.332;2023-08-07T04:00:52;101002.75;;;12.18;100.00
75640;BME280;64233;51.486;6.332;2023-08-07T04:03:21;100995.28;;;12.25;100.00
75640;BME280;64233;51.486;6.332;2023-08-07T04:05:46;100993.59;;;12.19;100.00
75640;BME280;64233;51.486;6.332;2023-08-07T04:08:11;100998.69;;;12.15;100.00
75640;BME280;64233;51.486;6.332;2023-08-07T04:10:36;100995.75;;;12.17;100.00
75640;BME280;64233;51.486;6.332;2023-08-07T04:13:02;100995.22;;;12.20;100.00
75640;BME280;64233;51.486;6.332;2023-08-07T04:15:27;100995.44;;;12.13;100.00
75640;BME280;64233;51.486;6.332;2023-08-07T04:17:53;101004.03;;;12.10;100.00
75640;BME280;64233;51.486;6.332;2023-08-07T04:20:18;100998.66;;;12.10;100.00
75640;BME280;64233;51.486;6.332;2023-08-07T04:22:45;101002.09;;;12.05;100.00
75640;BME280;64233;51.486;6.332;2023-08-07T04:25:11;101011.56;;;12.08;100.00
75640;BME280;64233;51.486;6.332;2023-08-07T04:27:37;101007.75;;;12.04;100.00
75640;BME280;64233;51.486;6.332;2023-08-07T04:30:04;100999.41;;;12.05;100.00
75640;BME280;64233;51.486;6.332;2023-08-07T04:32:29;101004.19;;;11.98;100.00
75640;BME280;64233;51.486;6.332;2023-08-07T04:34:54;101006.38;;;12.01;100.00
75640;BME280;64233;51.486;6.332;2023-08-07T04:37:20;101010.38;;;11.99;100.00
75640;BME280;64233;51.486;6.332;2023-08-07T04:39:45;101001.66;;;11.92;100.00
75640;BME280;64233;51.486;6.332;2023-08-07T04:42:10;101006.56;;;11.95;100.00
75640;BME280;64233;51.486;6.332;2023-08-07T04:44:35;101018.88;;;11.91;100.00
75640;BME280;64233;51.486;6.332;2023-08-07T04:47:01;101015.38;;;11.90;100.00
75640;BME280;64233;51.486;6.332;2023-08-07T04:49:26;101017.81;;;11.92;100.00
75640;BME280;64233;51.486;6.332;2023-08-07T04:51:51;101026.84;;;12.02;100.00
75640;BME280;64233;51.486;6.332;2023-08-07T04:54:16;101032.66;;;11.94;100.00
75640;BME280;64233;51.486;6.332;2023-08-07T04:56:42;101024.59;;;11.94;100.00
75640;BME280;64233;51.486;6.332;2023-08-07T04:59:09;101017.06;;;11.96;100.00
75640;BME280;64233;51.486;6.332;2023-08-07T05:01:35;101031.50;;;11.90;100.00
75640;BME280;64233;51.486;6.332;2023-08-07T05:04:00;101024.50;;;11.89;100.00
75640;BME280;64233;51.486;6.332;2023-08-07T05:06:26;101030.72;;;11.89;100.00
75640;BME280;64233;51.486;6.332;2023-08-07T05:08:52;101036.53;;;11.81;100.00
75640;BME280;64233;51.486;6.332;2023-08-07T05:11:17;101038.72;;;11.84;100.00
75640;BME280;64233;51.486;6.332;2023-08-07T05:13:42;101042.22;;;11.85;100.00
75640;BME280;64233;51.486;6.332;2023-08-07T05:16:07;101041.41;;;11.84;100.00
75640;BME280;64233;51.486;6.332;2023-08-07T05:18:33;101053.19;;;11.78;100.00
75640;BME280;64233;51.486;6.332;2023-08-07T05:20:58;101045.38;;;11.77;100.00
75640;BME280;64233;51.486;6.332;2023-08-07T05:23:23;101046.97;;;11.78;100.00
75640;BME280;64233;51.486;6.332;2023-08-07T05:25:48;101063.06;;;11.73;100.00
75640;BME280;64233;51.486;6.332;2023-08-07T05:28:14;101062.84;;;11.79;100.00
75640;BME280;64233;51.486;6.332;2023-08-07T05:30:39;101058.81;;;11.77;100.00
75640;BME280;64233;51.486;6.332;2023-08-07T05:33:04;101063.38;;;11.76;100.00
75640;BME280;64233;51.486;6.332;2023-08-07T05:35:30;101062.84;;;11.79;100.00
75640;BME280;64233;51.486;6.332;2023-08-07T05:37:55;101067.63;;;11.72;100.00
75640;BME280;64233;51.486;6.332;2023-08-07T05:40:20;101071.19;;;11.78;100.00
75640;BME280;64233;51.486;6.332;2023-08-07T05:42:45;101071.50;;;11.81;100.00
75640;BME280;64233;51.486;6.332;2023-08-07T05:45:11;101070.13;;;11.79;100.00
75640;BME280;64233;51.486;6.332;2023-08-07T05:47:36;101068.75;;;11.76;100.00
75640;BME280;64233;51.486;6.332;2023-08-07T05:50:02;101082.25;;;11.81;100.00
75640;BME280;64233;51.486;6.332;2023-08-07T05:52:27;101073.88;;;11.78;100.00
75640;BME280;64233;51.486;6.332;2023-08-07T05:54:52;101078.44;;;11.77;100.00
75640;BME280;64233;51.486;6.332;2023-08-07T05:57:18;101072.53;;;11.75;100.00
75640;BME280;64233;51.486;6.332;2023-08-07T05:59:43;101083.56;;;11.79;100.00
75640;BME280;64233;51.486;6.332;2023-08-07T06:02:09;101072.31;;;11.82;100.00
75640;BME280;64233;51.486;6.332;2023-08-07T06:04:36;101080.38;;;11.82;100.00
75640;BME280;64233;51.486;6.332;2023-08-07T06:07:02;101079.31;;;11.83;100.00
75640;BME280;64233;51.486;6.332;2023-08-07T06:09:27;101095.28;;;11.89;100.00
75640;BME280;64233;51.486;6.332;2023-08-07T06:11:53;101100.94;;;11.93;100.00
75640;BME280;64233;51.486;6.332;2023-08-07T06:14:18;101093.38;;;11.90;100.00
75640;BME280;64233;51.486;6.332;2023-08-07T06:16:43;101083.16;;;11.92;100.00
75640;BME280;64233;51.486;6.332;2023-08-07T06:19:08;101083.16;;;11.92;100.00
75640;BME280;64233;51.486;6.332;2023-08-07T06:21:34;101099.31;;;11.92;100.00
75640;BME280;64233;51.486;6.332;2023-08-07T06:23:59;101101.59;;;12.00;100.00
75640;BME280;64233;51.486;6.332;2023-08-07T06:26:24;101105.38;;;11.99;100.00
75640;BME280;64233;51.486;6.332;2023-08-07T06:28:50;101102.41;;;12.01;100.00
75640;BME280;64233;51.486;6.332;2023-08-07T06:31:15;101104.09;;;12.07;100.00
75640;BME280;64233;51.486;6.332;2023-08-07T06:33:41;101111.03;;;12.03;100.00
75640;BME280;64233;51.486;6.332;2023-08-07T06:36:07;101103.28;;;12.07;100.00
75640;BME280;64233;51.486;6.332;2023-08-07T06:38:33;101107.56;;;12.02;100.00
75640;BME280;64233;51.486;6.332;2023-08-07T06:40:58;101109.66;;;12.00;100.00
75640;BME280;64233;51.486;6.332;2023-08-07T06:43:24;101117.88;;;12.11;100.00
75640;BME280;64233;51.486;6.332;2023-08-07T06:45:49;101134.88;;;12.16;100.00
75640;BME280;64233;51.486;6.332;2023-08-07T06:48:15;101142.97;;;12.16;100.00
75640;BME280;64233;51.486;6.332;2023-08-07T06:50:40;101142.69;;;12.18;100.00
75640;BME280;64233;51.486;6.332;2023-08-07T06:53:06;101139.44;;;12.16;100.00
75640;BME280;64233;51.486;6.332;2023-08-07T06:55:31;101134.50;;;12.08;100.00
75640;BME280;64233;51.486;6.332;2023-08-07T06:57:58;101146.69;;;12.15;100.00
75640;BME280;64233;51.486;6.332;2023-08-07T07:00:23;101144.31;;;12.19;100.00
75640;BME280;64233;51.486;6.332;2023-08-07T07:02:48;101140.56;;;12.20;100.00
75640;BME280;64233;51.486;6.332;2023-08-07T07:05:13;101152.69;;;12.22;100.00
75640;BME280;64233;51.486;6.332;2023-08-07T07:07:39;101147.88;;;12.25;100.00
75640;BME280;64233;51.486;6.332;2023-08-07T07:10:05;101160.78;;;12.22;100.00
75640;BME280;64233;51.486;6.332;2023-08-07T07:12:30;101162.44;;;12.29;100.00
75640;BME280;64233;51.486;6.332;2023-08-07T07:14:55;101163.22;;;12.24;100.00
75640;BME280;64233;51.486;6.332;2023-08-07T07:17:21;101173.22;;;12.29;100.00
75640;BME280;64233;51.486;6.332;2023-08-07T07:19:46;101174.41;;;12.38;100.00
75640;BME280;64233;51.486;6.332;2023-08-07T07:22:11;101178.34;;;12.30;100.00
75640;BME280;64233;51.486;6.332;2023-08-07T07:24:37;101184.91;;;12.39;100.00
75640;BME280;64233;51.486;6.332;2023-08-07T07:27:03;101187.03;;;12.37;100.00
75640;BME280;64233;51.486;6.332;2023-08-07T07:29:28;101198.63;;;12.38;100.00
75640;BME280;64233;51.486;6.332;2023-08-07T07:31:54;101202.00;;;12.50;100.00
75640;BME280;64233;51.486;6.332;2023-08-07T07:34:20;101200.66;;;12.53;100.00
75640;BME280;64233;51.486;6.332;2023-08-07T07:36:45;101196.34;;;12.52;100.00
75640;BME280;64233;51.486;6.332;2023-08-07T07:39:11;101206.63;;;12.55;100.00
75640;BME280;64233;51.486;6.332;2023-08-07T07:41:36;101212.28;;;12.58;100.00
75640;BME280;64233;51.486;6.332;2023-08-07T07:44:02;101218.00;;;12.62;100.00
75640;BME280;64233;51.486;6.332;2023-08-07T07:46:27;101214.69;;;12.55;100.00
75640;BME280;64233;51.486;6.332;2023-08-07T07:48:52;101216.97;;;12.68;100.00
75640;BME280;64233;51.486;6.332;2023-08-07T07:51:18;101216.84;;;12.80;100.00
75640;BME280;64233;51.486;6.332;2023-08-07T07:53:43;101223.13;;;12.91;100.00
75640;BME280;64233;51.486;6.332;2023-08-07T07:56:08;101220.13;;;12.87;100.00
75640;BME280;64233;51.486;6.332;2023-08-07T07:58:33;101220.22;;;12.98;100.00
75640;BME280;64233;51.486;6.332;2023-08-07T08:00:59;101228.56;;;12.96;100.00
75640;BME280;64233;51.486;6.332;2023-08-07T08:03:24;101229.38;;;12.97;100.00
75640;BME280;64233;51.486;6.332;2023-08-07T08:05:50;101229.75;;;13.11;100.00
75640;BME280;64233;51.486;6.332;2023-08-07T08:08:16;101229.91;;;13.26;100.00
75640;BME280;64233;51.486;6.332;2023-08-07T08:10:42;101234.06;;;13.39;100.00
75640;BME280;64233;51.486;6.332;2023-08-07T08:13:09;101236.03;;;13.49;100.00
75640;BME280;64233;51.486;6.332;2023-08-07T08:15:34;101230.38;;;13.50;100.00
75640;BME280;64233;51.486;6.332;2023-08-07T08:17:59;101239.66;;;13.70;100.00
75640;BME280;64233;51.486;6.332;2023-08-07T08:20:25;101236.66;;;13.61;100.00
75640;BME280;64233;51.486;6.332;2023-08-07T08:22:50;101236.97;;;13.70;100.00
75640;BME280;64233;51.486;6.332;2023-08-07T08:25:16;101240.59;;;13.91;100.00
75640;BME280;64233;51.486;6.332;2023-08-07T08:27:42;101241.72;;;13.95;100.00
75640;BME280;64233;51.486;6.332;2023-08-07T08:30:08;101245.56;;;14.15;100.00
75640;BME280;64233;51.486;6.332;2023-08-07T08:32:34;101248.03;;;14.16;100.00
75640;BME280;64233;51.486;6.332;2023-08-07T08:34:59;101250.72;;;14.21;100.00
75640;BME280;64233;51.486;6.332;2023-08-07T08:37:25;101260.69;;;14.10;100.00
75640;BME280;64233;51.486;6.332;2023-08-07T08:39:50;101254.97;;;14.07;100.00
75640;BME280;64233;51.486;6.332;2023-08-07T08:42:15;101239.59;;;14.07;100.00
75640;BME280;64233;51.486;6.332;2023-08-07T08:44:46;101255.03;;;14.12;100.00
75640;BME280;64233;51.486;6.332;2023-08-07T08:47:14;101252.31;;;14.12;100.00
75640;BME280;64233;51.486;6.332;2023-08-07T08:50:00;101243.91;;;14.08;100.00
75640;BME280;64233;51.486;6.332;2023-08-07T08:52:27;101245.53;;;14.04;100.00
75640;BME280;64233;51.486;6.332;2023-08-07T08:54:53;101256.44;;;14.30;100.00
75640;BME280;64233;51.486;6.332;2023-08-07T08:57:20;101259.69;;;14.37;100.00
75640;BME280;64233;51.486;6.332;2023-08-07T08:59:45;101248.88;;;14.37;100.00
75640;BME280;64233;51.486;6.332;2023-08-07T09:02:11;101259.22;;;14.51;100.00
75640;BME280;64233;51.486;6.332;2023-08-07T09:04:37;101266.19;;;14.41;100.00
75640;BME280;64233;51.486;6.332;2023-08-07T09:07:02;101264.41;;;13.99;100.00
75640;BME280;64233;51.486;6.332;2023-08-07T09:09:29;101279.22;;;13.97;100.00
75640;BME280;64233;51.486;6.332;2023-08-07T09:11:57;101277.53;;;13.85;100.00
75640;BME280;64233;51.486;6.332;2023-08-07T09:14:26;101286.47;;;13.91;100.00
75640;BME280;64233;51.486;6.332;2023-08-07T09:16:53;101283.22;;;13.89;100.00
75640;BME280;64233;51.486;6.332;2023-08-07T09:19:19;101287.91;;;14.09;100.00
75640;BME280;64233;51.486;6.332;2023-08-07T09:21:44;101280.34;;;14.06;100.00
75640;BME280;64233;51.486;6.332;2023-08-07T09:24:09;101288.47;;;14.11;100.00
75640;BME280;64233;51.486;6.332;2023-08-07T09:26:34;101286.34;;;14.18;100.00
75640;BME280;64233;51.486;6.332;2023-08-07T09:29:01;101277.81;;;14.47;100.00
75640;BME280;64233;51.486;6.332;2023-08-07T09:31:27;101287.44;;;15.01;100.00
75640;BME280;64233;51.486;6.332;2023-08-07T09:33:52;101273.16;;;15.26;100.00
75640;BME280;64233;51.486;6.332;2023-08-07T09:36:17;101272.06;;;15.43;100.00
75640;BME280;64233;51.486;6.332;2023-08-07T09:38:44;101263.69;;;15.39;100.00
75640;BME280;64233;51.486;6.332;2023-08-07T09:41:09;101268.56;;;15.47;100.00
75640;BME280;64233;51.486;6.332;2023-08-07T09:43:35;101266.63;;;15.63;100.00
75640;BME280;64233;51.486;6.332;2023-08-07T09:46:05;101261.75;;;15.76;100.00
75640;BME280;64233;51.486;6.332;2023-08-07T09:48:32;101268.78;;;15.72;100.00
75640;BME280;64233;51.486;6.332;2023-08-07T09:51:03;101274.47;;;15.75;100.00
75640;BME280;64233;51.486;6.332;2023-08-07T09:53:29;101257.09;;;16.07;100.00
75640;BME280;64233;51.486;6.332;2023-08-07T09:55:55;101267.03;;;16.27;100.00
75640;BME280;64233;51.486;6.332;2023-08-07T09:58:20;101264.19;;;16.58;100.00
75640;BME280;64233;51.486;6.332;2023-08-07T10:00:47;101265.66;;;16.35;100.00
75640;BME280;64233;51.486;6.332;2023-08-07T10:03:13;101278.22;;;16.05;100.00
75640;BME280;64233;51.486;6.332;2023-08-07T10:05:39;101274.16;;;15.97;100.00
75640;BME280;64233;51.486;6.332;2023-08-07T10:08:05;101269.94;;;16.51;100.00
75640;BME280;64233;51.486;6.332;2023-08-07T10:10:34;101278.56;;;17.03;100.00
75640;BME280;64233;51.486;6.332;2023-08-07T10:13:02;101277.50;;;16.55;100.00
75640;BME280;64233;51.486;6.332;2023-08-07T10:15:29;101277.34;;;16.30;100.00
75640;BME280;64233;51.486;6.332;2023-08-07T10:17:55;101293.31;;;16.32;100.00
75640;BME280;64233;51.486;6.332;2023-08-07T10:20:21;101280.94;;;16.65;100.00
75640;BME280;64233;51.486;6.332;2023-08-07T10:22:46;101275.81;;;16.64;100.00
75640;BME280;64233;51.486;6.332;2023-08-07T10:25:13;101278.28;;;16.55;100.00
75640;BME280;64233;51.486;6.332;2023-08-07T10:27:40;101287.28;;;16.45;100.00
75640;BME280;64233;51.486;6.332;2023-08-07T10:30:08;101288.22;;;16.75;100.00
75640;BME280;64233;51.486;6.332;2023-08-07T10:32:36;101272.84;;;16.60;100.00
75640;BME280;64233;51.486;6.332;2023-08-07T10:35:05;101284.13;;;16.78;100.00
75640;BME280;64233;51.486;6.332;2023-08-07T10:37:44;101277.97;;;17.12;100.00
75640;BME280;64233;51.486;6.332;2023-08-07T10:40:11;101278.47;;;17.19;100.00
75640;BME280;64233;51.486;6.332;2023-08-07T10:45:26;101282.06;;;17.73;100.00
75640;BME280;64233;51.486;6.332;2023-08-07T10:48:07;101291.25;;;17.77;100.00
75640;BME280;64233;51.486;6.332;2023-08-07T10:50:34;101290.91;;;17.54;100.00
75640;BME280;64233;51.486;6.332;2023-08-07T10:53:01;101291.06;;;17.04;100.00
75640;BME280;64233;51.486;6.332;2023-08-07T10:55:31;101300.41;;;16.73;100.00
75640;BME280;64233;51.486;6.332;2023-08-07T10:57:56;101293.69;;;16.65;100.00
75640;BME280;64233;51.486;6.332;2023-08-07T11:00:26;101310.81;;;16.60;100.00
75640;BME280;64233;51.486;6.332;2023-08-07T11:02:52;101307.25;;;16.60;100.00
75640;BME280;64233;51.486;6.332;2023-08-07T11:05:17;101318.44;;;16.48;100.00
75640;BME280;64233;51.486;6.332;2023-08-07T11:07:43;101322.38;;;16.71;100.00
75640;BME280;64233;51.486;6.332;2023-08-07T11:10:12;101318.56;;;16.77;100.00
75640;BME280;64233;51.486;6.332;2023-08-07T11:12:39;101325.16;;;17.16;100.00
75640;BME280;64233;51.486;6.332;2023-08-07T11:15:04;101323.69;;;17.29;100.00
75640;BME280;64233;51.486;6.332;2023-08-07T11:17:30;101330.94;;;17.04;100.00
75640;BME280;64233;51.486;6.332;2023-08-07T11:19:56;101328.34;;;16.73;100.00
75640;BME280;64233;51.486;6.332;2023-08-07T11:22:21;101347.56;;;16.82;100.00
75640;BME280;64233;51.486;6.332;2023-08-07T11:24:46;101344.31;;;17.30;100.00
75640;BME280;64233;51.486;6.332;2023-08-07T11:27:12;101339.88;;;17.44;100.00
75640;BME280;64233;51.486;6.332;2023-08-07T11:29:37;101344.56;;;17.68;100.00
75640;BME280;64233;51.486;6.332;2023-08-07T11:32:03;101340.91;;;17.48;100.00
75640;BME280;64233;51.486;6.332;2023-08-07T11:34:28;101341.78;;;17.73;100.00
75640;BME280;64233;51.486;6.332;2023-08-07T11:36:54;101333.78;;;17.58;100.00
75640;BME280;64233;51.486;6.332;2023-08-07T11:39:23;101330.63;;;17.75;100.00
75640;BME280;64233;51.486;6.332;2023-08-07T11:41:50;101335.41;;;17.59;100.00
75640;BME280;64233;51.486;6.332;2023-08-07T11:44:17;101328.75;;;17.41;100.00
75640;BME280;64233;51.486;6.332;2023-08-07T11:46:43;101341.59;;;17.64;100.00
75640;BME280;64233;51.486;6.332;2023-08-07T11:49:08;101342.72;;;17.87;100.00
75640;BME280;64233;51.486;6.332;2023-08-07T11:51:35;101334.31;;;17.89;100.00
75640;BME280;64233;51.486;6.332;2023-08-07T11:54:00;101334.41;;;17.79;100.00
75640;BME280;64233;51.486;6.332;2023-08-07T11:56:26;101347.50;;;17.71;100.00
75640;BME280;64233;51.486;6.332;2023-08-07T11:58:52;101334.50;;;17.68;100.00
75640;BME280;64233;51.486;6.332;2023-08-07T12:01:20;101341.16;;;17.52;100.00
75640;BME280;64233;51.486;6.332;2023-08-07T12:03:57;101332.22;;;17.46;100.00
75640;BME280;64233;51.486;6.332;2023-08-07T12:06:25;101344.25;;;17.35;100.00
75640;BME280;64233;51.486;6.332;2023-08-07T12:08:54;101334.25;;;17.30;100.00
75640;BME280;64233;51.486;6.332;2023-08-07T12:11:20;101341.94;;;17.18;100.00
75640;BME280;64233;51.486;6.332;2023-08-07T12:13:47;101341.72;;;17.09;100.00
75640;BME280;64233;51.486;6.332;2023-08-07T12:16:14;101334.63;;;17.18;100.00
75640;BME280;64233;51.486;6.332;2023-08-07T12:18:49;101347.91;;;17.20;100.00
75640;BME280;64233;51.486;6.332;2023-08-07T12:21:16;101351.50;;;17.10;100.00
75640;BME280;64233;51.486;6.332;2023-08-07T12:23:43;101349.34;;;17.47;100.00
75640;BME280;64233;51.486;6.332;2023-08-07T12:26:08;101337.53;;;17.62;100.00
75640;BME280;64233;51.486;6.332;2023-08-07T12:28:34;101343.38;;;17.79;100.00
75640;BME280;64233;51.486;6.332;2023-08-07T12:31:00;101337.66;;;17.81;100.00
75640;BME280;64233;51.486;6.332;2023-08-07T12:33:28;101344.06;;;17.95;100.00
75640;BME280;64233;51.486;6.332;2023-08-07T12:35:53;101347.25;;;18.02;100.00
75640;BME280;64233;51.486;6.332;2023-08-07T12:38:19;101345.03;;;18.04;100.00
75640;BME280;64233;51.486;6.332;2023-08-07T12:40:44;101353.00;;;17.96;100.00
75640;BME280;64233;51.486;6.332;2023-08-07T12:43:09;101339.59;;;18.04;100.00